Flight Track Log - Related Links

Times and Time Zones

All times are in EST time to prevent confusion due to time zone crossing. See the SWA197 flight status page for this flight to view local times or setup timezone preferences in your user account.

Time Position Orientation Groundspeed Altitude Reporting Facility
EST Latitude Longitude Course Direction KTS MPH feet Rate Location/Type
Mon 12:23:43 AM 34.1667 -118.3833 270° West 176 203 3,300  Level Southern California TRACON
Mon 12:24:55 AM 34.1667 -118.4500 270° West 250 288 8,100 3,490 Climbing Southern California TRACON
Mon 12:26:59 AM 34.3042 -118.5350 333° Northwest 324 373 14,700 3,568 Climbing Los Angeles Center
Mon 12:28:00 AM 34.4106 -118.6039 332° Northwest 365 420 19,100 3,885 Climbing Los Angeles Center
Mon 12:29:01 AM 34.4836 -118.6514 332° Northwest 372 428 22,600 3,689 Climbing Los Angeles Center
Mon 12:30:02 AM 34.5875 -118.7189 332° Northwest 354 407 26,600 2,656 Climbing Los Angeles Center
Mon 12:31:03 AM 34.6783 -118.7781 332° Northwest 366 421 28,000 689 Climbing Los Angeles Center
Mon 12:32:04 AM 34.7706 -118.8422 330° Northwest 377 434 28,000  Level Los Angeles Center
Mon 12:33:05 AM 34.8617 -118.9186 325° Northwest 399 459 28,000  Level Los Angeles Center
Mon 12:34:06 AM 34.9417 -118.9972 321° Northwest 398 458 28,000  Level Los Angeles Center
Mon 12:35:07 AM 35.0447 -119.0969 322° Northwest 395 455 28,000  Level Los Angeles Center
Mon 12:36:08 AM 35.1319 -119.1808 322° Northwest 399 459 28,000  Level Los Angeles Center
Mon 12:37:09 AM 35.2183 -119.2658 321° Northwest 400 460 28,000  Level Los Angeles Center
Mon 12:38:10 AM 35.3058 -119.3514 321° Northwest 403 464 28,000  Level Los Angeles Center
Mon 12:39:11 AM 35.3925 -119.4375 321° Northwest 404 465 28,000  Level Los Angeles Center
Mon 12:40:12 AM 35.4786 -119.5236 321° Northwest 402 463 28,000  Level Los Angeles Center
Mon 12:41:13 AM 35.5656 -119.6100 321° Northwest 403 464 28,000  Level Los Angeles Center
Mon 12:42:14 AM 35.6522 -119.6969 321° Northwest 404 465 28,000  Level Los Angeles Center
Mon 12:43:15 AM 35.7383 -119.7836 321° Northwest 402 463 28,000 -246 Level Los Angeles Center
Mon 12:44:16 AM 35.8422 -119.8881 321° Northwest 404 465 27,500 -635 Descending Los Angeles Center
Mon 12:44:59 AM 35.8933 -119.9389 321° Northwest 406 467 26,900 -865 Descending Oakland Center
Mon 12:46:00 AM 35.9775 -120.0244 321° Northwest 398 458 26,000 -446 Descending Oakland Center
Mon 12:47:00 AM 36.0603 -120.1086 321° Northwest 390 449 26,000  Level Oakland Center
Mon 12:48:01 AM 36.1439 -120.1925 321° Northwest 389 448 26,000  Level Oakland Center
Mon 12:49:02 AM 36.2275 -120.2781 320° Northwest 392 451 26,000  Level Oakland Center
Mon 12:50:02 AM 36.3100 -120.3644 320° Northwest 390 449 26,000  Level Oakland Center
Mon 12:51:03 AM 36.4114 -120.4656 321° Northwest 392 451 26,000  Level Oakland Center
Mon 12:52:04 AM 36.4944 -120.5542 319° Northwest 394 453 26,000  Level Oakland Center
Mon 12:53:04 AM 36.5808 -120.6403 321° Northwest 399 459 26,000  Level Oakland Center
Mon 12:54:05 AM 36.6664 -120.7258 321° Northwest 397 457 26,000 -98 Level Oakland Center
Mon 12:55:06 AM 36.7500 -120.8172 319° Northwest 400 460 25,800 -942 Descending Oakland Center
Mon 12:56:06 AM 36.8275 -120.9100 316° Northwest 397 457 24,100 -2,132 Descending Oakland Center
Mon 12:57:07 AM 36.9072 -121.0008 318° Northwest 391 450 21,500 -2,410 Descending Oakland Center
Mon 12:58:08 AM 36.9850 -121.0889 318° Northwest 379 436 19,200 -2,132 Descending Oakland Center
Mon 12:59:08 AM 37.0569 -121.1722 317° Northwest 363 418 17,200 -2,033 Descending Oakland Center
Mon 01:00:09 AM 37.1300 -121.2558 318° Northwest 351 404 15,100 -2,164 Descending Oakland Center
Mon 01:01:10 AM 37.1992 -121.3367 317° Northwest 342 394 12,800 -2,182 Descending Oakland Center
Mon 01:02:10 AM 37.2661 -121.4158 317° Northwest 334 384 10,700 -1,537 Descending Oakland Center
Mon 01:03:11 AM 37.3300 -121.4892 318° Northwest 312 359 9,700 -1,328 Descending Oakland Center
Mon 01:04:12 AM 37.3861 -121.5544 317° Northwest 289 333 8,000 -1,453 Descending Oakland Center
Mon 01:04:46 AM 37.4333 -121.6000 323° Northwest 270 311 7,400 -1,011 Descending Northern Cal TRACON
Mon 01:05:47 AM 37.4833 -121.6500 322° Northwest 258 297 6,400 -700 Descending Northern Cal TRACON
Mon 01:06:46 AM 37.5333 -121.7167 313° West 255 293 6,000 -576 Descending Northern Cal TRACON
Mon 01:07:52 AM 37.5500 -121.8167 282° West 271 312 5,200 -1,000 Descending Northern Cal TRACON
Mon 01:08:52 AM 37.5833 -121.9000 297° West 266 306 3,900 -895 Descending Northern Cal TRACON
Mon 01:09:46 AM 37.6000 -121.9667 288° West 240 276 3,500 -474 Descending Northern Cal TRACON
Mon 01:10:46 AM 37.6000 -122.0333 270° West 189 217 3,000 -550 Descending Northern Cal TRACON
Mon 01:11:46 AM 37.6167 -122.1000 288° West 181 208 2,400 -730 Descending Northern Cal TRACON
Mon 01:12:41 AM 37.6500 -122.1333 322° Northwest 158 182 1,600 -800 Descending Northern Cal TRACON
Mon 01:13:46 AM 37.6833 -122.1833 310° West 137 158 800 -756 Descending Northern Cal TRACON
Mon 01:14:40 AM 37.7000 -122.2167 302° West 125 144 100 -778 Descending Northern Cal TRACON
Mon 01:17:00 AM 37.7167 -122.2167 270° West  Level FlightAware Approximate

Login

Don't have an account? Register now (free) for customized features, flight alerts, and more!